< < Back
Terminal Aerodrome Forecast


Current Version              Previous Versions:   1  2  3  4  5  6  7  8  9  

Terminal Aerodrome Forecast

317
FTUS42 KILM 101604 AAA
TAFFLO
TAF AMD
KFLO 101604Z 1016/1112 28010G18KT P6SM SCT040
     FM110000 28008KT P6SM SKC=

Latest METAR

901
SAUS70 KWBC 111500 RRF
MTRFLO
METAR KFLO 111453Z 32006KT 10SM CLR 01/M12 A3025 RMK AO2 SLP244
T00111122 51016


USA.gov is the U.S. government's official web portal to all federal, state and local government web resources and services.